createdAt,value
2022-11-30T00:01:21.604Z,14.63
2022-11-30T00:03:52.536Z,15.07
2022-11-30T00:06:23.162Z,15.00
2022-11-30T00:08:52.874Z,16.03
2022-11-30T00:11:22.623Z,15.07
2022-11-30T00:13:49.663Z,15.90
2022-11-30T00:16:16.140Z,15.43
2022-11-30T00:18:42.587Z,15.07
2022-11-30T00:21:12.574Z,15.10
2022-11-30T00:23:41.905Z,14.03
2022-11-30T00:26:10.697Z,14.83
2022-11-30T00:28:38.000Z,15.27
2022-11-30T00:31:11.356Z,15.40
2022-11-30T00:33:38.770Z,15.53
2022-11-30T00:36:19.227Z,14.67
2022-11-30T00:38:46.396Z,15.83
2022-11-30T00:41:13.511Z,14.90
2022-11-30T00:43:40.149Z,14.83
2022-11-30T00:46:09.221Z,15.10
2022-11-30T00:48:36.712Z,14.03
2022-11-30T00:51:03.207Z,13.90
2022-11-30T00:53:29.903Z,13.93
2022-11-30T00:55:56.379Z,13.57
2022-11-30T00:58:23.120Z,13.53
2022-11-30T01:00:49.834Z,13.17
2022-11-30T01:03:16.249Z,13.70
2022-11-30T01:05:43.306Z,12.83
2022-11-30T01:08:11.676Z,13.23
2022-11-30T01:10:40.594Z,12.93
2022-11-30T01:13:07.592Z,13.90
2022-11-30T01:15:42.629Z,13.47
2022-11-30T01:18:09.366Z,12.63
2022-11-30T01:20:39.420Z,14.03
2022-11-30T01:23:05.827Z,13.93
2022-11-30T01:25:32.204Z,13.63
2022-11-30T01:27:58.674Z,15.00
2022-11-30T01:30:25.292Z,13.10
2022-11-30T01:32:51.675Z,12.17
2022-11-30T01:35:18.081Z,13.83
2022-11-30T01:37:44.524Z,13.80
2022-11-30T01:40:11.524Z,14.07
2022-11-30T01:42:38.063Z,14.50
2022-11-30T01:45:06.126Z,13.73
2022-11-30T01:47:43.754Z,15.57
2022-11-30T01:50:25.758Z,13.70
2022-11-30T01:52:56.371Z,14.87
2022-11-30T01:55:28.594Z,14.13
2022-11-30T01:58:01.767Z,15.30
2022-11-30T02:00:28.646Z,14.43
2022-11-30T02:03:07.691Z,14.70
2022-11-30T02:05:37.870Z,13.77
2022-11-30T02:08:06.158Z,14.93
2022-11-30T02:10:37.520Z,14.63
2022-11-30T02:13:07.021Z,13.20
2022-11-30T02:15:45.086Z,14.20
2022-11-30T02:18:20.751Z,13.00
2022-11-30T02:20:59.702Z,15.27
2022-11-30T02:23:41.637Z,14.80
2022-11-30T02:26:15.022Z,15.43
2022-11-30T02:28:53.788Z,13.67
2022-11-30T02:31:25.556Z,15.23
2022-11-30T02:33:53.717Z,13.27
2022-11-30T02:36:21.134Z,14.83
2022-11-30T02:38:47.950Z,15.30
2022-11-30T02:41:14.410Z,13.67
2022-11-30T02:43:41.016Z,13.63
2022-11-30T02:46:19.819Z,14.73
2022-11-30T02:48:49.330Z,14.17
2022-11-30T02:51:20.701Z,13.77
2022-11-30T02:53:48.162Z,14.73
2022-11-30T02:56:14.752Z,13.83
2022-11-30T02:58:41.302Z,14.43
2022-11-30T03:01:07.914Z,13.17
2022-11-30T03:03:34.350Z,14.10
2022-11-30T03:06:00.771Z,14.30
2022-11-30T03:08:27.250Z,13.73
2022-11-30T03:10:53.714Z,13.67
2022-11-30T03:13:21.079Z,13.80
2022-11-30T03:15:48.082Z,12.97
2022-11-30T03:18:14.639Z,12.50
2022-11-30T03:20:42.612Z,12.90
2022-11-30T03:23:09.373Z,14.13
2022-11-30T03:25:36.045Z,12.30
2022-11-30T03:28:03.015Z,13.53
2022-11-30T03:30:29.566Z,12.90
2022-11-30T03:32:56.006Z,12.00
2022-11-30T03:35:22.567Z,13.20
2022-11-30T03:37:49.075Z,13.50
2022-11-30T03:40:15.676Z,12.57
2022-11-30T03:42:42.802Z,13.60
2022-11-30T03:45:09.554Z,10.97
2022-11-30T03:47:36.931Z,11.30
2022-11-30T03:50:04.890Z,12.03
2022-11-30T03:52:31.290Z,11.27
2022-11-30T03:54:57.682Z,12.80
2022-11-30T03:57:24.135Z,12.23
2022-11-30T03:59:50.587Z,11.73
2022-11-30T04:02:16.962Z,11.27
2022-11-30T04:04:43.321Z,12.30
2022-11-30T04:07:09.732Z,11.93
2022-11-30T04:09:36.177Z,12.50
2022-11-30T04:12:02.627Z,11.37
2022-11-30T04:14:29.037Z,11.60
2022-11-30T04:16:55.464Z,11.50
2022-11-30T04:19:21.854Z,11.70
2022-11-30T04:21:48.331Z,12.50
2022-11-30T04:24:14.786Z,13.17
2022-11-30T04:26:41.164Z,11.87
2022-11-30T04:29:07.568Z,13.20
2022-11-30T04:31:34.019Z,12.53
2022-11-30T04:34:00.789Z,12.53
2022-11-30T04:36:27.209Z,12.10
2022-11-30T04:38:53.790Z,11.73
2022-11-30T04:41:20.169Z,12.40
2022-11-30T04:43:46.610Z,12.37
2022-11-30T04:46:13.188Z,11.40
2022-11-30T04:48:39.649Z,14.10
2022-11-30T04:51:08.334Z,13.83
2022-11-30T04:53:36.531Z,11.67
2022-11-30T04:56:08.211Z,11.47
2022-11-30T04:58:35.667Z,12.30
2022-11-30T05:01:02.014Z,11.83
2022-11-30T05:03:28.433Z,12.57
2022-11-30T05:05:55.642Z,11.50
2022-11-30T05:08:22.641Z,10.80
2022-11-30T05:10:53.689Z,10.47
2022-11-30T05:13:21.618Z,10.57
2022-11-30T05:15:48.030Z,10.37
2022-11-30T05:18:15.828Z,9.73
2022-11-30T05:20:46.465Z,9.40
2022-11-30T05:23:12.891Z,9.10
2022-11-30T05:25:39.346Z,10.63
2022-11-30T05:28:05.781Z,11.40
2022-11-30T05:30:32.251Z,11.00
2022-11-30T05:32:58.677Z,12.17
2022-11-30T05:35:25.191Z,11.47
2022-11-30T05:37:51.671Z,10.60
2022-11-30T05:40:18.174Z,11.23
2022-11-30T05:42:44.556Z,11.43
2022-11-30T05:45:11.498Z,10.27
2022-11-30T05:47:37.867Z,11.77
2022-11-30T05:50:05.018Z,10.70
2022-11-30T05:52:31.541Z,11.87
2022-11-30T05:54:59.346Z,11.80
2022-11-30T05:57:25.800Z,12.53
2022-11-30T05:59:52.219Z,11.57
2022-11-30T06:02:22.500Z,11.17
2022-11-30T06:04:51.624Z,12.00
2022-11-30T06:07:18.031Z,11.17
2022-11-30T06:09:44.604Z,11.93
2022-11-30T06:12:11.010Z,10.63
2022-11-30T06:14:37.396Z,9.10
2022-11-30T06:17:03.906Z,9.83
2022-11-30T06:19:30.510Z,10.13
2022-11-30T06:21:56.948Z,10.17
2022-11-30T06:24:23.370Z,11.03
2022-11-30T06:26:49.781Z,10.83
2022-11-30T06:29:16.162Z,10.73
2022-11-30T06:31:42.610Z,10.60
2022-11-30T06:34:09.076Z,10.63
2022-11-30T06:36:36.384Z,10.63
2022-11-30T06:39:03.843Z,9.77
2022-11-30T06:41:30.341Z,10.20
2022-11-30T06:43:56.793Z,9.50
2022-11-30T06:46:23.860Z,9.40
2022-11-30T06:48:53.097Z,9.40
2022-11-30T06:51:20.774Z,9.70
2022-11-30T06:53:47.735Z,10.00
2022-11-30T06:56:14.875Z,9.67
2022-11-30T06:58:42.085Z,9.23
2022-11-30T07:01:30.565Z,10.70
2022-11-30T07:03:57.010Z,8.83
2022-11-30T07:06:23.538Z,8.73
2022-11-30T07:08:50.204Z,9.93
2022-11-30T07:11:23.154Z,10.13
2022-11-30T07:13:49.629Z,10.73
2022-11-30T07:16:16.099Z,10.90
2022-11-30T07:18:42.548Z,10.40
2022-11-30T07:21:11.776Z,9.87
2022-11-30T07:23:57.212Z,10.60
2022-11-30T07:26:24.891Z,10.20
2022-11-30T07:28:55.105Z,10.30
2022-11-30T07:31:24.099Z,9.23
2022-11-30T07:33:51.174Z,10.20
2022-11-30T07:36:19.865Z,9.30
2022-11-30T07:38:46.776Z,10.27
2022-11-30T07:41:13.839Z,9.83
2022-11-30T07:43:40.649Z,9.00
2022-11-30T07:46:08.845Z,9.23
2022-11-30T07:48:35.329Z,9.23
2022-11-30T07:51:10.616Z,9.03
2022-11-30T07:53:37.017Z,9.13
2022-11-30T07:56:05.785Z,9.57
2022-11-30T07:58:33.821Z,9.73
2022-11-30T08:01:09.539Z,8.83
2022-11-30T08:03:37.527Z,10.00
2022-11-30T08:06:07.246Z,11.10
2022-11-30T08:08:36.417Z,10.57
2022-11-30T08:11:04.316Z,10.33
2022-11-30T08:13:31.489Z,11.07
2022-11-30T08:16:09.816Z,10.20
2022-11-30T08:18:36.693Z,10.13
2022-11-30T08:21:06.773Z,10.80
2022-11-30T08:23:41.919Z,10.60
2022-11-30T08:26:13.097Z,10.37
2022-11-30T08:28:40.682Z,10.43
2022-11-30T08:31:25.911Z,11.60
2022-11-30T08:33:58.045Z,9.87
2022-11-30T08:36:25.743Z,10.40
2022-11-30T08:38:52.609Z,11.20
2022-11-30T08:41:23.487Z,10.23
2022-11-30T08:43:55.991Z,11.87
2022-11-30T08:49:26.799Z,11.60
2022-11-30T08:54:46.663Z,11.00
2022-11-30T08:57:15.745Z,10.67
2022-11-30T08:59:42.789Z,12.07
2022-11-30T09:02:11.565Z,10.87
2022-11-30T09:04:38.073Z,11.43
2022-11-30T09:07:04.542Z,12.30
2022-11-30T09:09:31.285Z,12.07
2022-11-30T09:11:57.681Z,12.50
2022-11-30T09:14:25.097Z,12.20
2022-11-30T09:16:53.442Z,11.60
2022-11-30T09:19:20.167Z,12.43
2022-11-30T09:21:51.479Z,12.60
2022-11-30T09:24:30.602Z,12.03
2022-11-30T09:26:57.652Z,11.17
2022-11-30T09:29:24.093Z,10.77
2022-11-30T09:31:53.296Z,11.40
2022-11-30T09:34:19.862Z,11.50
2022-11-30T09:36:46.265Z,11.73
2022-11-30T09:39:13.080Z,11.67
2022-11-30T09:42:07.500Z,11.03
2022-11-30T09:44:56.127Z,13.73
2022-11-30T09:47:52.924Z,11.20
2022-11-30T09:50:23.025Z,10.87
2022-11-30T09:52:53.070Z,10.97
2022-11-30T09:55:33.122Z,11.37
2022-11-30T09:58:04.819Z,10.73
2022-11-30T10:00:31.923Z,11.77
2022-11-30T10:03:03.032Z,12.40
2022-11-30T10:06:15.929Z,10.87
2022-11-30T10:09:03.784Z,11.97
2022-11-30T10:11:53.427Z,11.73
2022-11-30T10:14:38.482Z,11.20
2022-11-30T10:17:30.034Z,10.43
2022-11-30T10:20:28.091Z,10.43
2022-11-30T10:23:15.825Z,11.17
2022-11-30T10:26:05.668Z,10.87
2022-11-30T10:28:49.304Z,10.50
2022-11-30T10:31:17.858Z,10.17
2022-11-30T10:33:53.022Z,11.10
2022-11-30T10:36:36.549Z,10.33
2022-11-30T10:39:14.362Z,11.10
2022-11-30T10:41:48.425Z,11.30
2022-11-30T10:44:20.332Z,10.67
2022-11-30T10:46:56.962Z,10.83
2022-11-30T10:49:28.186Z,9.93
2022-11-30T10:52:02.012Z,10.90
2022-11-30T10:54:29.829Z,11.23
2022-11-30T10:57:02.132Z,10.10
2022-11-30T10:59:46.155Z,10.43
2022-11-30T11:02:37.979Z,10.10
2022-11-30T11:05:23.919Z,9.07
2022-11-30T11:08:04.396Z,10.83
2022-11-30T11:10:40.044Z,9.13
2022-11-30T11:13:06.673Z,9.70
2022-11-30T11:15:34.931Z,9.93
2022-11-30T11:18:35.623Z,9.07
2022-11-30T11:21:20.906Z,9.63
2022-11-30T11:23:51.863Z,9.70
2022-11-30T11:26:28.352Z,9.80
2022-11-30T11:28:59.437Z,9.60
2022-11-30T11:31:44.306Z,10.60
2022-11-30T11:34:31.605Z,9.53
2022-11-30T11:37:18.238Z,10.30
2022-11-30T11:39:59.631Z,8.93
2022-11-30T11:42:29.393Z,9.03
2022-11-30T11:44:57.769Z,9.37
2022-11-30T11:47:36.104Z,9.33
2022-11-30T11:50:06.951Z,9.37
2022-11-30T11:52:33.486Z,10.30
2022-11-30T11:55:09.664Z,10.10
2022-11-30T11:57:41.343Z,9.27
2022-11-30T12:00:23.300Z,9.37
2022-11-30T12:03:12.786Z,8.60
2022-11-30T12:05:51.506Z,9.60
2022-11-30T12:08:33.007Z,9.97
2022-11-30T12:11:04.510Z,9.47
2022-11-30T12:13:38.755Z,10.73
2022-11-30T12:16:49.877Z,9.93
2022-11-30T12:19:50.967Z,9.90
2022-11-30T12:22:40.041Z,11.00
2022-11-30T12:25:27.730Z,10.40
2022-11-30T12:28:18.448Z,10.43
2022-11-30T12:30:50.957Z,10.30
2022-11-30T12:33:34.970Z,10.40
2022-11-30T12:36:07.449Z,10.17
2022-11-30T12:38:38.841Z,9.23
2022-11-30T12:41:22.627Z,10.20
2022-11-30T12:44:01.841Z,10.70
2022-11-30T12:46:40.384Z,9.57
2022-11-30T12:49:25.778Z,9.30
2022-11-30T12:51:58.956Z,8.53
2022-11-30T12:54:52.975Z,8.43
2022-11-30T12:57:27.895Z,8.27
2022-11-30T13:00:23.889Z,7.60
2022-11-30T13:03:17.823Z,8.37
2022-11-30T13:05:51.647Z,8.00
2022-11-30T13:08:44.299Z,7.70
2022-11-30T13:11:18.215Z,8.17
2022-11-30T13:13:52.155Z,7.80
2022-11-30T13:16:20.519Z,8.27
2022-11-30T13:18:47.981Z,8.37
2022-11-30T13:21:24.139Z,9.00
2022-11-30T13:24:08.031Z,8.87
2022-11-30T13:26:45.921Z,8.87
2022-11-30T13:29:47.457Z,8.13
2022-11-30T13:32:55.322Z,7.60
2022-11-30T13:35:29.846Z,7.20
2022-11-30T13:38:34.636Z,6.47
2022-11-30T13:41:09.146Z,7.47
2022-11-30T13:43:47.849Z,7.07
2022-11-30T13:46:26.038Z,6.90
2022-11-30T13:49:30.161Z,7.27
2022-11-30T13:52:21.375Z,7.17
2022-11-30T13:55:00.669Z,6.93
2022-11-30T13:57:33.746Z,7.80
2022-11-30T14:00:35.516Z,8.30
2022-11-30T14:03:43.072Z,8.43
2022-11-30T14:06:48.800Z,8.53
2022-11-30T14:09:42.888Z,9.77
2022-11-30T14:12:51.604Z,7.97
2022-11-30T14:15:41.364Z,8.63
2022-11-30T14:18:14.604Z,8.73
2022-11-30T14:20:50.160Z,8.73
2022-11-30T14:23:54.047Z,8.33
2022-11-30T14:26:45.638Z,8.63
2022-11-30T14:29:25.530Z,8.00
2022-11-30T14:32:15.094Z,8.77
2022-11-30T14:34:51.603Z,10.00
2022-11-30T14:37:33.768Z,9.03
2022-11-30T14:40:13.053Z,9.83
2022-11-30T14:42:54.866Z,9.87
2022-11-30T14:45:27.828Z,8.93
2022-11-30T14:48:07.036Z,8.87
2022-11-30T14:50:34.669Z,9.23
2022-11-30T14:53:20.904Z,10.03
2022-11-30T14:56:02.668Z,9.40
2022-11-30T14:58:50.906Z,10.23
2022-11-30T15:01:24.082Z,9.47
2022-11-30T15:03:53.842Z,10.03
2022-11-30T15:06:25.885Z,9.63
2022-11-30T15:08:55.388Z,9.47
2022-11-30T15:11:22.774Z,9.97
2022-11-30T15:13:51.633Z,10.87
2022-11-30T15:16:24.168Z,10.47
2022-11-30T15:18:51.791Z,11.07
2022-11-30T15:21:24.136Z,9.90
2022-11-30T15:23:52.240Z,10.13
2022-11-30T15:26:54.310Z,10.00
2022-11-30T15:29:32.756Z,10.93
2022-11-30T15:32:02.270Z,10.53
2022-11-30T15:34:40.082Z,10.97
2022-11-30T15:37:07.579Z,11.13
2022-11-30T15:39:34.556Z,10.90
2022-11-30T15:42:04.131Z,10.43
2022-11-30T15:44:47.346Z,10.10
2022-11-30T15:47:34.964Z,10.80
2022-11-30T15:50:03.230Z,10.07
2022-11-30T15:52:34.460Z,11.30
2022-11-30T15:55:04.058Z,11.17
2022-11-30T15:58:00.227Z,10.57
2022-11-30T16:00:27.598Z,10.83
2022-11-30T16:03:14.762Z,10.60
2022-11-30T16:05:55.916Z,10.60
2022-11-30T16:08:22.995Z,10.83
2022-11-30T16:10:50.150Z,11.57
2022-11-30T16:13:19.991Z,10.33
2022-11-30T16:15:49.179Z,10.80
2022-11-30T16:18:22.186Z,10.63
2022-11-30T16:21:00.859Z,11.00
2022-11-30T16:23:28.907Z,11.13
2022-11-30T16:25:56.192Z,11.23
2022-11-30T16:28:23.277Z,11.40
2022-11-30T16:30:52.166Z,12.33
2022-11-30T16:33:22.310Z,12.10
2022-11-30T16:35:57.905Z,12.63
2022-11-30T16:38:25.794Z,11.07
2022-11-30T16:40:55.869Z,11.30
2022-11-30T16:43:23.608Z,11.53
2022-11-30T16:45:50.968Z,12.00
2022-11-30T16:48:18.096Z,10.13
2022-11-30T16:50:45.035Z,11.63
2022-11-30T16:53:16.455Z,11.17
2022-11-30T16:55:43.571Z,10.80
2022-11-30T16:58:10.068Z,11.70
2022-11-30T17:00:39.493Z,10.80
2022-11-30T17:03:20.041Z,10.27
2022-11-30T17:05:47.209Z,9.93
2022-11-30T17:08:13.865Z,9.93
2022-11-30T17:10:40.469Z,9.47
2022-11-30T17:13:06.904Z,8.67
2022-11-30T17:15:33.281Z,9.47
2022-11-30T17:17:59.750Z,8.40
2022-11-30T17:20:27.552Z,8.30
2022-11-30T17:22:54.024Z,8.23
2022-11-30T17:25:23.142Z,8.23
2022-11-30T17:27:50.704Z,8.80
2022-11-30T17:30:19.907Z,8.73
2022-11-30T17:32:47.273Z,9.07
2022-11-30T17:35:14.450Z,8.60
2022-11-30T17:37:40.823Z,9.17
2022-11-30T17:40:08.517Z,8.10
2022-11-30T17:42:34.955Z,7.83
2022-11-30T17:45:01.846Z,8.03
2022-11-30T17:47:28.399Z,8.30
2022-11-30T17:49:55.000Z,9.27
2022-11-30T17:52:21.525Z,7.77
2022-11-30T17:54:48.217Z,7.17
2022-11-30T17:57:14.795Z,7.77
2022-11-30T17:59:41.179Z,7.97
2022-11-30T18:02:11.772Z,8.40
2022-11-30T18:04:38.328Z,8.60
2022-11-30T18:07:04.783Z,7.23
2022-11-30T18:09:36.583Z,7.57
2022-11-30T18:12:07.427Z,7.70
2022-11-30T18:14:34.553Z,7.13
2022-11-30T18:17:01.066Z,8.03
2022-11-30T18:19:27.839Z,8.23
2022-11-30T18:21:56.679Z,8.10
2022-11-30T18:24:25.505Z,8.23
2022-11-30T18:26:52.592Z,8.87
2022-11-30T18:29:19.867Z,7.63
2022-11-30T18:31:48.294Z,8.57
2022-11-30T18:34:15.363Z,8.73
2022-11-30T18:36:41.820Z,9.07
2022-11-30T18:39:08.324Z,9.23
2022-11-30T18:41:34.979Z,9.17
2022-11-30T18:44:01.518Z,9.10
2022-11-30T18:46:28.101Z,8.63
2022-11-30T18:48:54.763Z,9.37
2022-11-30T18:51:24.101Z,9.03
2022-11-30T18:53:57.553Z,8.60
2022-11-30T18:56:28.251Z,8.50
2022-11-30T18:59:06.637Z,8.20
2022-11-30T19:01:34.511Z,7.83
2022-11-30T19:04:06.413Z,7.90
2022-11-30T19:06:35.115Z,8.17
2022-11-30T19:09:05.169Z,8.50
2022-11-30T19:11:35.276Z,8.97
2022-11-30T19:14:02.308Z,8.73
2022-11-30T19:16:29.940Z,9.57
2022-11-30T19:19:00.311Z,8.30
2022-11-30T19:21:27.303Z,10.00
2022-11-30T19:23:54.805Z,9.53
2022-11-30T19:26:22.438Z,8.97
2022-11-30T19:28:48.986Z,8.63
2022-11-30T19:31:20.213Z,9.47
2022-11-30T19:33:48.706Z,8.57
2022-11-30T19:36:18.284Z,8.27
2022-11-30T19:38:45.239Z,8.93
2022-11-30T19:41:13.962Z,8.67
2022-11-30T19:43:41.223Z,7.73
2022-11-30T19:46:10.564Z,8.67
2022-11-30T19:48:37.754Z,8.57
2022-11-30T19:51:14.796Z,8.63
2022-11-30T19:53:44.599Z,7.77
2022-11-30T19:56:14.290Z,8.30
2022-11-30T19:58:42.182Z,8.00
2022-11-30T20:01:32.406Z,8.17
2022-11-30T20:03:59.168Z,8.60
2022-11-30T20:06:29.179Z,8.10
2022-11-30T20:08:55.922Z,7.23
2022-11-30T20:11:22.402Z,8.00
2022-11-30T20:13:51.162Z,8.00
2022-11-30T20:16:19.439Z,8.60
2022-11-30T20:18:52.399Z,7.83
2022-11-30T20:21:22.157Z,8.43
2022-11-30T20:23:49.241Z,9.00
2022-11-30T20:26:20.035Z,8.47
2022-11-30T20:28:48.030Z,7.53
2022-11-30T20:31:18.161Z,8.20
2022-11-30T20:33:45.146Z,9.23
2022-11-30T20:36:12.843Z,7.87
2022-11-30T20:38:42.804Z,7.50
2022-11-30T20:41:12.317Z,7.77
2022-11-30T20:43:39.089Z,7.87
2022-11-30T20:46:22.818Z,6.83
2022-11-30T20:48:50.426Z,6.87
2022-11-30T20:51:30.816Z,7.23
2022-11-30T20:54:05.728Z,7.90
2022-11-30T20:56:33.713Z,7.80
2022-11-30T20:59:07.019Z,7.40
2022-11-30T21:01:34.059Z,8.20
2022-11-30T21:04:01.277Z,7.87
2022-11-30T21:06:29.639Z,6.70
2022-11-30T21:08:56.268Z,7.20
2022-11-30T21:11:23.370Z,7.17
2022-11-30T21:13:51.031Z,6.97
2022-11-30T21:16:26.912Z,6.60
2022-11-30T21:18:56.866Z,6.60
2022-11-30T21:21:27.218Z,7.33
2022-11-30T21:23:54.194Z,7.80
2022-11-30T21:26:26.413Z,6.90
2022-11-30T21:28:54.355Z,7.27
2022-11-30T21:31:22.333Z,6.53
2022-11-30T21:33:53.278Z,7.63
2022-11-30T21:36:21.466Z,7.00
2022-11-30T21:38:47.947Z,7.07
2022-11-30T21:41:14.447Z,7.50
2022-11-30T21:43:41.419Z,6.80
2022-11-30T21:46:11.680Z,7.57
2022-11-30T21:48:39.721Z,6.93
2022-11-30T21:51:12.039Z,6.57
2022-11-30T21:53:44.886Z,6.87
2022-11-30T21:56:17.505Z,8.13
2022-11-30T21:58:45.874Z,7.67
2022-11-30T22:01:19.746Z,8.17
2022-11-30T22:03:46.664Z,7.40
2022-11-30T22:06:18.379Z,8.00
2022-11-30T22:08:45.237Z,7.23
2022-11-30T22:11:14.153Z,8.00
2022-11-30T22:13:41.543Z,8.07
2022-11-30T22:16:13.475Z,7.83
2022-11-30T22:18:41.227Z,8.33
2022-11-30T22:21:10.669Z,8.47
2022-11-30T22:23:38.952Z,8.33
2022-11-30T22:26:13.210Z,8.87
2022-11-30T22:28:41.740Z,8.53
2022-11-30T22:31:09.969Z,9.23
2022-11-30T22:33:38.389Z,8.57
2022-11-30T22:36:06.397Z,9.90
2022-11-30T22:38:34.459Z,8.93
2022-11-30T22:41:09.374Z,8.90
2022-11-30T22:43:36.156Z,9.13
2022-11-30T22:46:29.961Z,10.10
2022-11-30T22:48:59.773Z,10.10
2022-11-30T22:51:28.178Z,9.67
2022-11-30T22:53:56.525Z,10.07
2022-11-30T22:56:28.152Z,9.20
2022-11-30T22:58:56.250Z,8.97
2022-11-30T23:01:24.976Z,9.00
2022-11-30T23:03:53.891Z,9.77
2022-11-30T23:06:21.171Z,10.37
2022-11-30T23:08:48.867Z,10.07
2022-11-30T23:11:22.118Z,10.03
2022-11-30T23:13:49.196Z,9.57
2022-11-30T23:16:16.512Z,10.23
2022-11-30T23:18:49.113Z,10.63
2022-11-30T23:21:17.112Z,10.93
2022-11-30T23:23:44.725Z,10.30
2022-11-30T23:26:13.481Z,10.93
2022-11-30T23:28:41.447Z,11.13
2022-11-30T23:31:34.535Z,11.67
2022-11-30T23:34:04.289Z,12.03
2022-11-30T23:36:30.880Z,10.40
2022-11-30T23:38:59.996Z,10.83
2022-11-30T23:41:26.528Z,10.87
2022-11-30T23:43:53.441Z,10.80
2022-11-30T23:46:20.581Z,10.77
2022-11-30T23:48:47.557Z,11.20
2022-11-30T23:51:14.018Z,11.30
2022-11-30T23:53:40.492Z,11.10
2022-11-30T23:56:11.875Z,10.87
2022-11-30T23:58:39.571Z,11.57
